sensor_id;sensor_type;location;lat;lon;timestamp;temperature;humidity
8684;DHT22;4379;59.744;18.206;2023-03-03T00:01:00;3.20;99.90
8684;DHT22;4379;59.744;18.206;2023-03-03T00:03:27;3.20;99.90
8684;DHT22;4379;59.744;18.206;2023-03-03T00:05:55;3.10;99.90
8684;DHT22;4379;59.744;18.206;2023-03-03T00:08:23;3.10;99.90
8684;DHT22;4379;59.744;18.206;2023-03-03T00:10:50;3.10;99.90
8684;DHT22;4379;59.744;18.206;2023-03-03T00:13:24;3.10;99.90
8684;DHT22;4379;59.744;18.206;2023-03-03T00:15:52;3.10;99.90
8684;DHT22;4379;59.744;18.206;2023-03-03T00:18:35;3.00;99.90
8684;DHT22;4379;59.744;18.206;2023-03-03T00:21:18;3.10;99.90
8684;DHT22;4379;59.744;18.206;2023-03-03T00:23:48;3.10;99.90
8684;DHT22;4379;59.744;18.206;2023-03-03T00:26:36;3.10;99.90
8684;DHT22;4379;59.744;18.206;2023-03-03T00:32:20;2.80;99.90
8684;DHT22;4379;59.744;18.206;2023-03-03T00:34:48;2.80;99.90
8684;DHT22;4379;59.744;18.206;2023-03-03T00:37:34;2.80;99.90
8684;DHT22;4379;59.744;18.206;2023-03-03T00:42:39;2.70;99.90
8684;DHT22;4379;59.744;18.206;2023-03-03T00:45:26;2.70;99.90
8684;DHT22;4379;59.744;18.206;2023-03-03T00:47:55;2.70;99.90
8684;DHT22;4379;59.744;18.206;2023-03-03T00:50:33;2.70;99.90
8684;DHT22;4379;59.744;18.206;2023-03-03T00:53:09;2.70;99.90
8684;DHT22;4379;59.744;18.206;2023-03-03T00:55:36;2.70;99.90
8684;DHT22;4379;59.744;18.206;2023-03-03T00:58:04;2.80;99.90
8684;DHT22;4379;59.744;18.206;2023-03-03T01:00:32;2.90;99.90
8684;DHT22;4379;59.744;18.206;2023-03-03T01:03:07;2.90;99.90
8684;DHT22;4379;59.744;18.206;2023-03-03T01:05:35;2.80;99.90
8684;DHT22;4379;59.744;18.206;2023-03-03T01:08:03;2.90;99.90
8684;DHT22;4379;59.744;18.206;2023-03-03T01:10:33;2.80;99.90
8684;DHT22;4379;59.744;18.206;2023-03-03T01:13:02;2.90;99.90
8684;DHT22;4379;59.744;18.206;2023-03-03T01:15:30;2.80;99.90
8684;DHT22;4379;59.744;18.206;2023-03-03T01:17:57;2.80;99.90
8684;DHT22;4379;59.744;18.206;2023-03-03T01:20:24;2.80;99.90
8684;DHT22;4379;59.744;18.206;2023-03-03T01:22:52;2.60;99.90
8684;DHT22;4379;59.744;18.206;2023-03-03T01:25:20;2.60;99.90
8684;DHT22;4379;59.744;18.206;2023-03-03T01:27:47;2.60;99.90
8684;DHT22;4379;59.744;18.206;2023-03-03T01:30:15;2.60;99.90
8684;DHT22;4379;59.744;18.206;2023-03-03T01:32:42;2.60;99.90
8684;DHT22;4379;59.744;18.206;2023-03-03T01:35:10;2.50;99.90
8684;DHT22;4379;59.744;18.206;2023-03-03T01:37:37;2.50;99.90
8684;DHT22;4379;59.744;18.206;2023-03-03T01:40:06;2.60;99.90
8684;DHT22;4379;59.744;18.206;2023-03-03T01:42:34;2.60;99.90
8684;DHT22;4379;59.744;18.206;2023-03-03T01:45:35;2.60;99.90
8684;DHT22;4379;59.744;18.206;2023-03-03T01:48:17;2.60;99.90
8684;DHT22;4379;59.744;18.206;2023-03-03T01:50:51;2.60;99.90
8684;DHT22;4379;59.744;18.206;2023-03-03T01:53:33;2.60;99.90
8684;DHT22;4379;59.744;18.206;2023-03-03T01:56:03;2.60;99.90
8684;DHT22;4379;59.744;18.206;2023-03-03T01:58:35;2.60;99.90
8684;DHT22;4379;59.744;18.206;2023-03-03T02:01:06;2.60;99.90
8684;DHT22;4379;59.744;18.206;2023-03-03T02:03:35;2.70;99.90
8684;DHT22;4379;59.744;18.206;2023-03-03T02:06:05;2.60;99.90
8684;DHT22;4379;59.744;18.206;2023-03-03T02:09:05;2.60;99.90
8684;DHT22;4379;59.744;18.206;2023-03-03T02:11:36;2.60;99.90
8684;DHT22;4379;59.744;18.206;2023-03-03T02:14:04;2.60;99.90
8684;DHT22;4379;59.744;18.206;2023-03-03T02:16:31;2.70;99.90
8684;DHT22;4379;59.744;18.206;2023-03-03T02:18:59;2.80;99.90
8684;DHT22;4379;59.744;18.206;2023-03-03T02:21:26;2.80;99.90
8684;DHT22;4379;59.744;18.206;2023-03-03T02:26:33;2.60;99.90
8684;DHT22;4379;59.744;18.206;2023-03-03T02:29:01;2.50;99.90
8684;DHT22;4379;59.744;18.206;2023-03-03T02:31:29;2.40;99.90
8684;DHT22;4379;59.744;18.206;2023-03-03T02:33:57;2.40;99.90
8684;DHT22;4379;59.744;18.206;2023-03-03T02:36:31;2.50;99.90
8684;DHT22;4379;59.744;18.206;2023-03-03T02:39:20;2.60;99.90
8684;DHT22;4379;59.744;18.206;2023-03-03T02:42:05;2.60;99.90
8684;DHT22;4379;59.744;18.206;2023-03-03T02:44:34;2.60;99.90
8684;DHT22;4379;59.744;18.206;2023-03-03T02:47:02;2.60;99.90
8684;DHT22;4379;59.744;18.206;2023-03-03T02:49:33;2.50;99.90
8684;DHT22;4379;59.744;18.206;2023-03-03T02:52:03;2.50;99.90
8684;DHT22;4379;59.744;18.206;2023-03-03T02:54:31;2.60;99.90
8684;DHT22;4379;59.744;18.206;2023-03-03T02:56:59;2.60;99.90
8684;DHT22;4379;59.744;18.206;2023-03-03T02:59:27;2.50;99.90
8684;DHT22;4379;59.744;18.206;2023-03-03T03:01:55;2.50;99.90
8684;DHT22;4379;59.744;18.206;2023-03-03T03:04:26;2.50;99.90
8684;DHT22;4379;59.744;18.206;2023-03-03T03:06:54;2.40;99.90
8684;DHT22;4379;59.744;18.206;2023-03-03T03:09:23;2.40;99.90
8684;DHT22;4379;59.744;18.206;2023-03-03T03:11:51;2.30;99.90
8684;DHT22;4379;59.744;18.206;2023-03-03T03:14:19;2.30;99.90
8684;DHT22;4379;59.744;18.206;2023-03-03T03:16:46;2.20;99.90
8684;DHT22;4379;59.744;18.206;2023-03-03T03:19:13;2.20;99.90
8684;DHT22;4379;59.744;18.206;2023-03-03T03:21:41;2.10;99.90
8684;DHT22;4379;59.744;18.206;2023-03-03T03:24:08;2.10;99.90
8684;DHT22;4379;59.744;18.206;2023-03-03T03:26:36;2.10;99.90
8684;DHT22;4379;59.744;18.206;2023-03-03T03:29:03;2.00;99.90
8684;DHT22;4379;59.744;18.206;2023-03-03T03:31:30;2.00;99.90
8684;DHT22;4379;59.744;18.206;2023-03-03T03:33:58;1.90;99.90
8684;DHT22;4379;59.744;18.206;2023-03-03T03:36:26;1.90;99.90
8684;DHT22;4379;59.744;18.206;2023-03-03T03:38:54;1.90;99.90
8684;DHT22;4379;59.744;18.206;2023-03-03T03:41:21;1.80;99.90
8684;DHT22;4379;59.744;18.206;2023-03-03T03:43:48;1.70;99.90
8684;DHT22;4379;59.744;18.206;2023-03-03T03:46:15;1.70;99.90
8684;DHT22;4379;59.744;18.206;2023-03-03T03:48:42;1.70;99.90
8684;DHT22;4379;59.744;18.206;2023-03-03T03:51:11;1.70;99.90
8684;DHT22;4379;59.744;18.206;2023-03-03T03:53:38;1.70;99.90
8684;DHT22;4379;59.744;18.206;2023-03-03T03:56:06;1.70;99.90
8684;DHT22;4379;59.744;18.206;2023-03-03T03:58:33;1.60;99.90
8684;DHT22;4379;59.744;18.206;2023-03-03T04:01:03;1.50;99.90
8684;DHT22;4379;59.744;18.206;2023-03-03T04:03:30;1.50;99.90
8684;DHT22;4379;59.744;18.206;2023-03-03T04:05:58;1.50;99.90
8684;DHT22;4379;59.744;18.206;2023-03-03T04:08:25;1.50;99.90
8684;DHT22;4379;59.744;18.206;2023-03-03T04:10:52;1.40;99.90
8684;DHT22;4379;59.744;18.206;2023-03-03T04:13:20;1.30;99.90
8684;DHT22;4379;59.744;18.206;2023-03-03T04:15:47;1.30;99.90
8684;DHT22;4379;59.744;18.206;2023-03-03T04:18:15;1.30;99.90
8684;DHT22;4379;59.744;18.206;2023-03-03T04:20:42;1.30;99.90
8684;DHT22;4379;59.744;18.206;2023-03-03T04:23:09;1.10;99.90
8684;DHT22;4379;59.744;18.206;2023-03-03T04:25:37;1.10;99.90
8684;DHT22;4379;59.744;18.206;2023-03-03T04:28:04;1.10;99.90
8684;DHT22;4379;59.744;18.206;2023-03-03T04:30:32;1.00;99.90
8684;DHT22;4379;59.744;18.206;2023-03-03T04:32:59;1.00;99.90
8684;DHT22;4379;59.744;18.206;2023-03-03T04:35:27;1.00;99.90
8684;DHT22;4379;59.744;18.206;2023-03-03T04:37:54;0.80;99.90
8684;DHT22;4379;59.744;18.206;2023-03-03T04:40:21;0.70;99.90
8684;DHT22;4379;59.744;18.206;2023-03-03T04:42:49;0.70;99.90
8684;DHT22;4379;59.744;18.206;2023-03-03T04:45:16;0.60;99.90
8684;DHT22;4379;59.744;18.206;2023-03-03T04:47:44;0.50;99.90
8684;DHT22;4379;59.744;18.206;2023-03-03T04:50:11;0.50;99.90
8684;DHT22;4379;59.744;18.206;2023-03-03T04:52:38;0.50;99.90
8684;DHT22;4379;59.744;18.206;2023-03-03T04:55:06;0.30;99.90
8684;DHT22;4379;59.744;18.206;2023-03-03T04:57:36;0.30;99.90
8684;DHT22;4379;59.744;18.206;2023-03-03T05:00:04;0.20;99.90
8684;DHT22;4379;59.744;18.206;2023-03-03T05:02:32;0.20;99.90
8684;DHT22;4379;59.744;18.206;2023-03-03T05:05:00;0.20;99.90
8684;DHT22;4379;59.744;18.206;2023-03-03T05:07:27;0.10;99.90
8684;DHT22;4379;59.744;18.206;2023-03-03T05:09:54;0.00;99.90
8684;DHT22;4379;59.744;18.206;2023-03-03T05:12:21;0.00;99.90
8684;DHT22;4379;59.744;18.206;2023-03-03T05:14:49;0.00;99.90
8684;DHT22;4379;59.744;18.206;2023-03-03T05:17:16;0.00;99.90
8684;DHT22;4379;59.744;18.206;2023-03-03T05:19:44;0.00;99.90
8684;DHT22;4379;59.744;18.206;2023-03-03T05:22:11;0.00;99.90
8684;DHT22;4379;59.744;18.206;2023-03-03T05:24:38;0.10;99.90
8684;DHT22;4379;59.744;18.206;2023-03-03T05:27:05;0.10;99.90
8684;DHT22;4379;59.744;18.206;2023-03-03T05:29:32;0.00;99.90
8684;DHT22;4379;59.744;18.206;2023-03-03T05:32:00;0.00;99.90
8684;DHT22;4379;59.744;18.206;2023-03-03T05:34:27;0.10;99.90
8684;DHT22;4379;59.744;18.206;2023-03-03T05:36:55;0.10;99.90
8684;DHT22;4379;59.744;18.206;2023-03-03T05:39:22;0.20;99.90
8684;DHT22;4379;59.744;18.206;2023-03-03T05:41:50;0.20;99.90
8684;DHT22;4379;59.744;18.206;2023-03-03T05:44:17;0.20;99.90
8684;DHT22;4379;59.744;18.206;2023-03-03T05:46:46;0.30;99.90
8684;DHT22;4379;59.744;18.206;2023-03-03T05:49:13;0.30;99.90
8684;DHT22;4379;59.744;18.206;2023-03-03T05:51:41;0.30;99.90
8684;DHT22;4379;59.744;18.206;2023-03-03T05:54:08;0.20;99.90
8684;DHT22;4379;59.744;18.206;2023-03-03T05:56:35;0.20;99.90
8684;DHT22;4379;59.744;18.206;2023-03-03T05:59:02;0.20;99.90
8684;DHT22;4379;59.744;18.206;2023-03-03T06:01:30;0.20;99.90
8684;DHT22;4379;59.744;18.206;2023-03-03T06:03:58;0.10;99.90
8684;DHT22;4379;59.744;18.206;2023-03-03T06:06:25;0.10;99.90
8684;DHT22;4379;59.744;18.206;2023-03-03T06:08:52;0.10;99.90
8684;DHT22;4379;59.744;18.206;2023-03-03T06:11:23;0.10;99.90
8684;DHT22;4379;59.744;18.206;2023-03-03T06:13:50;0.10;99.90
8684;DHT22;4379;59.744;18.206;2023-03-03T06:16:17;0.10;99.90
8684;DHT22;4379;59.744;18.206;2023-03-03T06:18:45;0.10;99.90
8684;DHT22;4379;59.744;18.206;2023-03-03T06:21:12;0.00;99.90
8684;DHT22;4379;59.744;18.206;2023-03-03T06:23:40;0.00;99.90
8684;DHT22;4379;59.744;18.206;2023-03-03T06:26:07;0.00;99.90
8684;DHT22;4379;59.744;18.206;2023-03-03T06:28:35;0.10;99.90
8684;DHT22;4379;59.744;18.206;2023-03-03T06:31:02;0.10;99.90
8684;DHT22;4379;59.744;18.206;2023-03-03T06:33:30;0.10;99.90
8684;DHT22;4379;59.744;18.206;2023-03-03T06:35:57;0.20;99.90
8684;DHT22;4379;59.744;18.206;2023-03-03T06:38:25;0.30;99.90
8684;DHT22;4379;59.744;18.206;2023-03-03T06:40:52;0.40;99.90
8684;DHT22;4379;59.744;18.206;2023-03-03T06:43:19;0.60;99.90
8684;DHT22;4379;59.744;18.206;2023-03-03T06:45:47;0.70;99.90
8684;DHT22;4379;59.744;18.206;2023-03-03T06:48:14;0.90;99.90
8684;DHT22;4379;59.744;18.206;2023-03-03T06:50:42;1.00;99.90
8684;DHT22;4379;59.744;18.206;2023-03-03T06:53:14;1.10;99.90
8684;DHT22;4379;59.744;18.206;2023-03-03T06:55:42;1.30;99.90
8684;DHT22;4379;59.744;18.206;2023-03-03T06:58:16;1.40;99.90
8684;DHT22;4379;59.744;18.206;2023-03-03T07:00:45;1.50;99.90
8684;DHT22;4379;59.744;18.206;2023-03-03T07:03:21;1.40;99.90
8684;DHT22;4379;59.744;18.206;2023-03-03T07:05:49;1.40;99.90
8684;DHT22;4379;59.744;18.206;2023-03-03T07:08:19;1.60;99.90
8684;DHT22;4379;59.744;18.206;2023-03-03T07:10:48;1.70;99.90
8684;DHT22;4379;59.744;18.206;2023-03-03T07:13:24;1.80;99.90
8684;DHT22;4379;59.744;18.206;2023-03-03T07:15:54;1.90;99.90
8684;DHT22;4379;59.744;18.206;2023-03-03T07:21:21;2.00;99.90
8684;DHT22;4379;59.744;18.206;2023-03-03T07:23:50;2.10;99.90
8684;DHT22;4379;59.744;18.206;2023-03-03T07:26:30;2.10;99.90
8684;DHT22;4379;59.744;18.206;2023-03-03T07:29:21;2.30;99.90
8684;DHT22;4379;59.744;18.206;2023-03-03T07:31:50;2.50;99.90
8684;DHT22;4379;59.744;18.206;2023-03-03T07:34:22;2.60;99.90
8684;DHT22;4379;59.744;18.206;2023-03-03T07:36:53;2.80;99.90
8684;DHT22;4379;59.744;18.206;2023-03-03T07:39:33;2.90;99.90
8684;DHT22;4379;59.744;18.206;2023-03-03T07:42:24;3.00;99.90
8684;DHT22;4379;59.744;18.206;2023-03-03T07:44:59;3.20;99.90
8684;DHT22;4379;59.744;18.206;2023-03-03T07:47:29;3.40;99.90
8684;DHT22;4379;59.744;18.206;2023-03-03T07:50:00;3.60;99.90
8684;DHT22;4379;59.744;18.206;2023-03-03T07:52:42;3.80;99.90
8684;DHT22;4379;59.744;18.206;2023-03-03T07:55:40;4.10;99.90
8684;DHT22;4379;59.744;18.206;2023-03-03T08:03:15;5.50;99.90
8684;DHT22;4379;59.744;18.206;2023-03-03T08:05:46;6.40;99.90
8684;DHT22;4379;59.744;18.206;2023-03-03T08:08:34;6.60;99.90
8684;DHT22;4379;59.744;18.206;2023-03-03T08:11:03;7.20;99.90
8684;DHT22;4379;59.744;18.206;2023-03-03T08:16:03;6.90;99.90
8684;DHT22;4379;59.744;18.206;2023-03-03T08:18:46;6.40;99.90
8684;DHT22;4379;59.744;18.206;2023-03-03T08:21:22;6.00;99.90
8684;DHT22;4379;59.744;18.206;2023-03-03T08:23:50;5.60;99.90
8684;DHT22;4379;59.744;18.206;2023-03-03T08:26:21;5.50;99.90
8684;DHT22;4379;59.744;18.206;2023-03-03T08:28:49;5.50;99.90
8684;DHT22;4379;59.744;18.206;2023-03-03T08:31:17;5.50;99.90
8684;DHT22;4379;59.744;18.206;2023-03-03T08:34:04;5.50;99.90
8684;DHT22;4379;59.744;18.206;2023-03-03T08:36:31;5.40;99.90
8684;DHT22;4379;59.744;18.206;2023-03-03T08:39:01;5.40;99.90
8684;DHT22;4379;59.744;18.206;2023-03-03T08:41:29;5.20;99.90
8684;DHT22;4379;59.744;18.206;2023-03-03T08:43:56;5.50;99.90
8684;DHT22;4379;59.744;18.206;2023-03-03T08:46:23;5.90;99.90
8684;DHT22;4379;59.744;18.206;2023-03-03T08:48:51;5.60;99.90
8684;DHT22;4379;59.744;18.206;2023-03-03T08:51:18;5.80;99.90
8684;DHT22;4379;59.744;18.206;2023-03-03T08:53:46;6.10;99.90
8684;DHT22;4379;59.744;18.206;2023-03-03T08:56:13;5.70;99.90
8684;DHT22;4379;59.744;18.206;2023-03-03T08:58:41;5.60;99.90
8684;DHT22;4379;59.744;18.206;2023-03-03T09:01:28;5.60;99.90
8684;DHT22;4379;59.744;18.206;2023-03-03T09:03:55;5.40;99.90
8684;DHT22;4379;59.744;18.206;2023-03-03T09:06:23;5.80;99.90
8684;DHT22;4379;59.744;18.206;2023-03-03T09:08:50;5.70;99.90
8684;DHT22;4379;59.744;18.206;2023-03-03T09:11:25;5.70;99.90
8684;DHT22;4379;59.744;18.206;2023-03-03T09:14:01;5.60;99.90
8684;DHT22;4379;59.744;18.206;2023-03-03T09:16:34;5.60;99.90
8684;DHT22;4379;59.744;18.206;2023-03-03T09:19:17;5.40;99.90
8684;DHT22;4379;59.744;18.206;2023-03-03T09:21:46;5.20;99.90
8684;DHT22;4379;59.744;18.206;2023-03-03T09:24:30;5.40;99.90
8684;DHT22;4379;59.744;18.206;2023-03-03T09:26:58;5.50;99.90
8684;DHT22;4379;59.744;18.206;2023-03-03T09:29:36;5.60;99.90
8684;DHT22;4379;59.744;18.206;2023-03-03T09:32:20;5.30;99.90
8684;DHT22;4379;59.744;18.206;2023-03-03T09:34:49;5.30;99.90
8684;DHT22;4379;59.744;18.206;2023-03-03T09:37:23;5.40;99.90
8684;DHT22;4379;59.744;18.206;2023-03-03T09:39:54;5.10;99.90
8684;DHT22;4379;59.744;18.206;2023-03-03T09:42:50;5.30;99.90
8684;DHT22;4379;59.744;18.206;2023-03-03T09:48:31;5.20;99.90
8684;DHT22;4379;59.744;18.206;2023-03-03T09:56:36;5.30;99.90
8684;DHT22;4379;59.744;18.206;2023-03-03T09:59:26;5.10;99.90
8684;DHT22;4379;59.744;18.206;2023-03-03T10:07:43;5.00;99.90
8684;DHT22;4379;59.744;18.206;2023-03-03T10:13:57;4.60;99.90
8684;DHT22;4379;59.744;18.206;2023-03-03T10:16:34;4.70;99.90
8684;DHT22;4379;59.744;18.206;2023-03-03T10:19:40;4.80;99.90
8684;DHT22;4379;59.744;18.206;2023-03-03T10:22:21;4.70;99.90
8684;DHT22;4379;59.744;18.206;2023-03-03T10:25:07;4.20;99.90
8684;DHT22;4379;59.744;18.206;2023-03-03T10:31:07;3.90;99.90
8684;DHT22;4379;59.744;18.206;2023-03-03T10:33:58;3.90;99.90
8684;DHT22;4379;59.744;18.206;2023-03-03T10:50:33;2.80;99.90
8684;DHT22;4379;59.744;18.206;2023-03-03T11:01:45;2.50;99.90
8684;DHT22;4379;59.744;18.206;2023-03-03T11:13:09;2.20;99.90
8684;DHT22;4379;59.744;18.206;2023-03-03T11:15:45;2.10;99.90
8684;DHT22;4379;59.744;18.206;2023-03-03T11:18:50;1.90;99.90
8684;DHT22;4379;59.744;18.206;2023-03-03T11:24:40;1.80;99.90
8684;DHT22;4379;59.744;18.206;2023-03-03T11:29:42;1.80;99.90
8684;DHT22;4379;59.744;18.206;2023-03-03T11:32:41;1.90;99.90
8684;DHT22;4379;59.744;18.206;2023-03-03T11:38:53;2.00;99.90
8684;DHT22;4379;59.744;18.206;2023-03-03T11:44:26;2.10;99.90
8684;DHT22;4379;59.744;18.206;2023-03-03T11:47:16;2.20;99.90
8684;DHT22;4379;59.744;18.206;2023-03-03T11:52:59;2.40;99.90
8684;DHT22;4379;59.744;18.206;2023-03-03T11:55:38;2.30;99.90
8684;DHT22;4379;59.744;18.206;2023-03-03T11:58:29;2.40;99.90
8684;DHT22;4379;59.744;18.206;2023-03-03T12:03:53;2.70;99.90
8684;DHT22;4379;59.744;18.206;2023-03-03T12:07:06;2.90;99.90
8684;DHT22;4379;59.744;18.206;2023-03-03T12:13:28;3.30;99.90
8684;DHT22;4379;59.744;18.206;2023-03-03T12:21:56;3.10;99.90
8684;DHT22;4379;59.744;18.206;2023-03-03T12:32:31;3.10;99.90
8684;DHT22;4379;59.744;18.206;2023-03-03T12:35:26;3.00;99.90
8684;DHT22;4379;59.744;18.206;2023-03-03T12:38:04;2.90;99.90
8684;DHT22;4379;59.744;18.206;2023-03-03T12:40:34;3.10;99.90
8684;DHT22;4379;59.744;18.206;2023-03-03T12:43:21;3.10;99.90
8684;DHT22;4379;59.744;18.206;2023-03-03T12:48:45;3.20;99.90
8684;DHT22;4379;59.744;18.206;2023-03-03T12:54:20;3.10;99.90
8684;DHT22;4379;59.744;18.206;2023-03-03T13:05:29;3.20;99.90
8684;DHT22;4379;59.744;18.206;2023-03-03T13:10:53;3.30;99.90
8684;DHT22;4379;59.744;18.206;2023-03-03T13:13:27;3.30;99.90
8684;DHT22;4379;59.744;18.206;2023-03-03T13:18:51;3.40;99.90
8684;DHT22;4379;59.744;18.206;2023-03-03T13:21:29;3.40;99.90
8684;DHT22;4379;59.744;18.206;2023-03-03T13:24:19;3.30;99.90
8684;DHT22;4379;59.744;18.206;2023-03-03T13:27:03;3.40;99.90
8684;DHT22;4379;59.744;18.206;2023-03-03T13:32:18;3.90;99.90
8684;DHT22;4379;59.744;18.206;2023-03-03T13:35:08;4.00;99.90
8684;DHT22;4379;59.744;18.206;2023-03-03T13:37:48;4.10;99.90
8684;DHT22;4379;59.744;18.206;2023-03-03T13:40:23;4.20;99.90
8684;DHT22;4379;59.744;18.206;2023-03-03T13:43:01;4.30;99.90
8684;DHT22;4379;59.744;18.206;2023-03-03T13:50:57;4.30;99.90
8684;DHT22;4379;59.744;18.206;2023-03-03T13:56:57;4.10;99.90
8684;DHT22;4379;59.744;18.206;2023-03-03T14:02:50;4.20;99.90
8684;DHT22;4379;59.744;18.206;2023-03-03T14:05:44;4.20;99.90
8684;DHT22;4379;59.744;18.206;2023-03-03T14:10:53;4.40;99.90
8684;DHT22;4379;59.744;18.206;2023-03-03T14:16:04;4.70;99.90
8684;DHT22;4379;59.744;18.206;2023-03-03T14:18:39;4.80;99.90
8684;DHT22;4379;59.744;18.206;2023-03-03T14:21:15;4.70;99.90
8684;DHT22;4379;59.744;18.206;2023-03-03T14:26:46;4.50;99.90
8684;DHT22;4379;59.744;18.206;2023-03-03T14:32:01;4.40;99.90
8684;DHT22;4379;59.744;18.206;2023-03-03T14:34:39;4.30;99.90
8684;DHT22;4379;59.744;18.206;2023-03-03T14:37:28;4.20;99.90
8684;DHT22;4379;59.744;18.206;2023-03-03T14:40:20;4.00;99.90
8684;DHT22;4379;59.744;18.206;2023-03-03T14:47:57;3.70;99.90
8684;DHT22;4379;59.744;18.206;2023-03-03T14:50:36;3.80;99.90
8684;DHT22;4379;59.744;18.206;2023-03-03T14:53:22;3.80;99.90
8684;DHT22;4379;59.744;18.206;2023-03-03T14:59:19;3.80;99.90
8684;DHT22;4379;59.744;18.206;2023-03-03T15:01:46;3.70;99.90
8684;DHT22;4379;59.744;18.206;2023-03-03T15:04:25;3.60;99.90
8684;DHT22;4379;59.744;18.206;2023-03-03T15:06:54;3.90;99.90
8684;DHT22;4379;59.744;18.206;2023-03-03T15:09:38;4.10;99.90
8684;DHT22;4379;59.744;18.206;2023-03-03T15:12:24;4.30;99.90
8684;DHT22;4379;59.744;18.206;2023-03-03T15:26:26;4.60;99.90
8684;DHT22;4379;59.744;18.206;2023-03-03T15:28:57;4.70;99.90
8684;DHT22;4379;59.744;18.206;2023-03-03T15:34:46;4.80;99.90
8684;DHT22;4379;59.744;18.206;2023-03-03T15:40:27;4.80;99.90
8684;DHT22;4379;59.744;18.206;2023-03-03T15:50:51;5.00;99.90
8684;DHT22;4379;59.744;18.206;2023-03-03T15:53:31;4.90;99.90
8684;DHT22;4379;59.744;18.206;2023-03-03T16:01:33;4.80;99.90
8684;DHT22;4379;59.744;18.206;2023-03-03T16:04:15;4.70;99.90
8684;DHT22;4379;59.744;18.206;2023-03-03T16:12:38;4.40;99.90
8684;DHT22;4379;59.744;18.206;2023-03-03T16:15:20;4.30;99.90
8684;DHT22;4379;59.744;18.206;2023-03-03T16:23:47;4.30;99.90
8684;DHT22;4379;59.744;18.206;2023-03-03T16:32:31;4.50;99.90
8684;DHT22;4379;59.744;18.206;2023-03-03T16:35:18;4.60;99.90
8684;DHT22;4379;59.744;18.206;2023-03-03T16:38:00;4.90;99.90
8684;DHT22;4379;59.744;18.206;2023-03-03T16:40:56;5.00;99.90
8684;DHT22;4379;59.744;18.206;2023-03-03T17:00:04;5.00;99.90
8684;DHT22;4379;59.744;18.206;2023-03-03T17:08:12;4.70;99.90
8684;DHT22;4379;59.744;18.206;2023-03-03T17:10:41;4.70;99.90
8684;DHT22;4379;59.744;18.206;2023-03-03T17:16:30;4.70;99.90
8684;DHT22;4379;59.744;18.206;2023-03-03T17:19:29;4.70;99.90
8684;DHT22;4379;59.744;18.206;2023-03-03T17:22:18;4.60;99.90
8684;DHT22;4379;59.744;18.206;2023-03-03T17:25:04;4.50;99.90
8684;DHT22;4379;59.744;18.206;2023-03-03T17:27:50;4.50;99.90
8684;DHT22;4379;59.744;18.206;2023-03-03T17:31:08;4.50;99.90
8684;DHT22;4379;59.744;18.206;2023-03-03T17:45:11;4.10;99.90
8684;DHT22;4379;59.744;18.206;2023-03-03T17:47:48;4.10;99.90
8684;DHT22;4379;59.744;18.206;2023-03-03T17:56:17;4.00;99.90
8684;DHT22;4379;59.744;18.206;2023-03-03T18:04:44;3.60;99.90
8684;DHT22;4379;59.744;18.206;2023-03-03T18:13:53;3.30;99.90
8684;DHT22;4379;59.744;18.206;2023-03-03T18:22:11;3.20;99.90
8684;DHT22;4379;59.744;18.206;2023-03-03T18:27:32;3.30;99.90
8684;DHT22;4379;59.744;18.206;2023-03-03T18:35:35;3.30;99.90
8684;DHT22;4379;59.744;18.206;2023-03-03T18:40:52;3.20;99.90
8684;DHT22;4379;59.744;18.206;2023-03-03T18:49:07;3.00;99.90
8684;DHT22;4379;59.744;18.206;2023-03-03T18:57:13;2.90;99.90
8684;DHT22;4379;59.744;18.206;2023-03-03T19:02:41;2.80;99.90
8684;DHT22;4379;59.744;18.206;2023-03-03T19:16:03;2.80;99.90
8684;DHT22;4379;59.744;18.206;2023-03-03T19:24:03;2.60;99.90
8684;DHT22;4379;59.744;18.206;2023-03-03T19:26:54;2.50;99.90
8684;DHT22;4379;59.744;18.206;2023-03-03T19:33:06;2.50;99.90
8684;DHT22;4379;59.744;18.206;2023-03-03T19:38:51;2.40;99.90
8684;DHT22;4379;59.744;18.206;2023-03-03T19:46:49;2.20;99.90
8684;DHT22;4379;59.744;18.206;2023-03-03T19:57:33;1.80;99.90
8684;DHT22;4379;59.744;18.206;2023-03-03T20:00:19;1.80;99.90
8684;DHT22;4379;59.744;18.206;2023-03-03T20:03:19;1.90;99.90
8684;DHT22;4379;59.744;18.206;2023-03-03T20:08:52;1.90;99.90
8684;DHT22;4379;59.744;18.206;2023-03-03T20:14:38;2.00;99.90
8684;DHT22;4379;59.744;18.206;2023-03-03T20:17:15;1.80;99.90
8684;DHT22;4379;59.744;18.206;2023-03-03T20:25:28;1.80;99.90
8684;DHT22;4379;59.744;18.206;2023-03-03T20:31:55;1.70;99.90
8684;DHT22;4379;59.744;18.206;2023-03-03T20:40:48;1.50;99.90
8684;DHT22;4379;59.744;18.206;2023-03-03T20:49:39;1.20;99.90
8684;DHT22;4379;59.744;18.206;2023-03-03T20:52:39;1.20;99.90
8684;DHT22;4379;59.744;18.206;2023-03-03T20:55:40;1.20;99.90
8684;DHT22;4379;59.744;18.206;2023-03-03T20:58:29;1.10;99.90
8684;DHT22;4379;59.744;18.206;2023-03-03T21:01:04;1.10;99.90
8684;DHT22;4379;59.744;18.206;2023-03-03T21:03:39;1.20;99.90
8684;DHT22;4379;59.744;18.206;2023-03-03T21:06:20;1.20;99.90
8684;DHT22;4379;59.744;18.206;2023-03-03T21:08:55;1.10;99.90
8684;DHT22;4379;59.744;18.206;2023-03-03T21:14:17;1.00;99.90
8684;DHT22;4379;59.744;18.206;2023-03-03T21:16:46;1.00;99.90
8684;DHT22;4379;59.744;18.206;2023-03-03T21:19:34;0.90;99.90
8684;DHT22;4379;59.744;18.206;2023-03-03T21:22:12;0.90;99.90
8684;DHT22;4379;59.744;18.206;2023-03-03T21:27:30;0.80;99.90
8684;DHT22;4379;59.744;18.206;2023-03-03T21:30:11;0.80;99.90
8684;DHT22;4379;59.744;18.206;2023-03-03T21:32:44;0.90;99.90
8684;DHT22;4379;59.744;18.206;2023-03-03T21:35:14;0.90;99.90
8684;DHT22;4379;59.744;18.206;2023-03-03T21:37:52;0.80;99.90
8684;DHT22;4379;59.744;18.206;2023-03-03T21:40:25;0.80;99.90
8684;DHT22;4379;59.744;18.206;2023-03-03T21:42:57;0.70;99.90
8684;DHT22;4379;59.744;18.206;2023-03-03T21:45:26;0.70;99.90
8684;DHT22;4379;59.744;18.206;2023-03-03T21:47:54;0.70;99.90
8684;DHT22;4379;59.744;18.206;2023-03-03T21:50:26;0.60;99.90
8684;DHT22;4379;59.744;18.206;2023-03-03T21:52:57;0.60;99.90
8684;DHT22;4379;59.744;18.206;2023-03-03T21:55:25;0.60;99.90
8684;DHT22;4379;59.744;18.206;2023-03-03T21:57:53;0.60;99.90
8684;DHT22;4379;59.744;18.206;2023-03-03T22:00:21;0.60;99.90
8684;DHT22;4379;59.744;18.206;2023-03-03T22:02:48;0.50;99.90
8684;DHT22;4379;59.744;18.206;2023-03-03T22:05:15;0.40;99.90
8684;DHT22;4379;59.744;18.206;2023-03-03T22:07:42;0.40;99.90
8684;DHT22;4379;59.744;18.206;2023-03-03T22:10:10;0.40;99.90
8684;DHT22;4379;59.744;18.206;2023-03-03T22:12:37;0.40;99.90
8684;DHT22;4379;59.744;18.206;2023-03-03T22:15:05;0.40;99.90
8684;DHT22;4379;59.744;18.206;2023-03-03T22:17:32;0.40;99.90
8684;DHT22;4379;59.744;18.206;2023-03-03T22:20:00;0.40;99.90
8684;DHT22;4379;59.744;18.206;2023-03-03T22:22:28;0.30;99.90
8684;DHT22;4379;59.744;18.206;2023-03-03T22:24:55;0.30;99.90
8684;DHT22;4379;59.744;18.206;2023-03-03T22:27:23;0.20;99.90
8684;DHT22;4379;59.744;18.206;2023-03-03T22:29:50;0.20;99.90
8684;DHT22;4379;59.744;18.206;2023-03-03T22:32:18;0.20;99.90
8684;DHT22;4379;59.744;18.206;2023-03-03T22:34:45;0.20;99.90
8684;DHT22;4379;59.744;18.206;2023-03-03T22:37:12;0.20;99.90
8684;DHT22;4379;59.744;18.206;2023-03-03T22:39:40;0.10;99.90
8684;DHT22;4379;59.744;18.206;2023-03-03T22:42:07;0.10;99.90
8684;DHT22;4379;59.744;18.206;2023-03-03T22:44:34;0.10;99.90
8684;DHT22;4379;59.744;18.206;2023-03-03T22:47:02;0.10;99.90
8684;DHT22;4379;59.744;18.206;2023-03-03T22:49:29;0.00;99.90